Terminal Aerodrome Forecast
Issued by NWS New Orleans/Baton Rouge, LA

Home | Current Version | Previous Version | Text Only | Print | Product List | Glossary On
Versions: 1 2 3 4 5 6 7 8 9 10 11 12 13 14 15
000
FTUS44 KLIX 231120
TAFBTR
TAF
KBTR 231120Z 2312/2412 VRB03KT P6SM SKC
     FM231500 11006KT P6SM SCT025 BKN080
     FM232100 13008KT P6SM VCTS BKN030CB
     FM240100 10005KT P6SM OVC050=

USA.gov is the U.S. government's official web portal to all federal, state and local government web resources and services.